METAR Data
IDs: Format: Raw Decoded Include TAF

Data at: 2252 UTC 10 May 2021

KCAG 102153Z AUTO 17005KT 10SM FEW044 SCT055 BKN070 09/02 A2999 RMK AO2 RAE05 SLP138 P0000 T00890022
KCAG 102053Z AUTO 16014KT 10SM -RA SCT040 BKN047 OVC100 04/03 A3000 RMK AO2 PK WND 19027/2025 LTG DSNT E RAB1958 TSB10E31 SLP153 P0002 60002 T00440028 53006
KCAG 102050Z AUTO 16015KT 10SM -RA BKN043 OVC095 04/03 A3000 RMK AO2 PK WND 19027/2025 LTG DSNT E RAB1958 TSB10E31 P0002
KCAG 102037Z AUTO 18016G27KT 9SM VCTS -RA FEW031 BKN047 OVC060 04/02 A3000 RMK AO2 PK WND 19027/2025 LTG DSNT E RAB1958 TSB10E31 P0001 T00440017
KCAG 102016Z AUTO 10SM -TSRA BKN047 OVC055 08/00 A2999 RMK AO2 RAB1958 TSB10 PRESRR P0001 T00780000
KCAG 102007Z AUTO 33010G17KT 10SM VCTS -RA BKN048 OVC075 09/M01 A2998 RMK AO2 RAB1958 P0001 T00891006
KCAG 101953Z AUTO 34007KT 10SM BKN050 OVC070 10/ A2996 RMK AO2 RAE01 SLP125 P0000 T0100 $
KCAG 101853Z AUTO 01006KT 7SM -RA SCT044 BKN060 OVC070 09/ A2998 RMK AO2 RAB39 SLP129 P0000 T0094 $
KCAG 101753Z AUTO 30009KT 10SM FEW041 BKN055 OVC080 10/ A2999 RMK AO2 LTG DSNT S SLP130 T0100 10106 20017 56007 $
KCAG 101653Z AUTO 29006KT 10SM SCT040 BKN065 OVC085 09/ A3000 RMK AO2 SLP133 T0089 $
KCAG 101553Z AUTO VRB03KT 10SM OVC080 08/ A3001 RMK AO2 SLP140 T0083 $
KCAG 101453Z AUTO 24003KT 10SM FEW049 FEW070 OVC090 06/M01 A3002 RMK AO2 SLP143 T00611006 50003
KCAG 101353Z AUTO 29004KT 10SM OVC090 04/M01 A3002 RMK AO2 SLP145 T00441006
KCAG 101253Z AUTO 00000KT 10SM OVC050 03/M01 A3002 RMK AO2 SLP144 T00281011
KCAG 101153Z AUTO 21006KT 10SM BKN060 02/M02 A3001 RMK AO2 SLP142 T00171022 10067 20011 51001
KCAG 101053Z AUTO 21004KT 10SM CLR 02/M03 A3001 RMK AO2 SLP139 T00221028
KCAG 100953Z AUTO 26003KT 10SM CLR 04/M03 A3001 RMK AO2 SLP135 T00391033
KCAG 100853Z AUTO VRB06KT 10SM OVC090 04/M03 A3000 RMK AO2 SLP129 T00441033 58001
KCAG 100753Z AUTO 25006KT 10SM BKN100 04/M04 A3001 RMK AO2 SLP136 T00441044
KCAG 100653Z AUTO 33006KT 10SM SCT110 06/M05 A3001 RMK AO2 SLP135 T00611050 401441022
KCAG 100553Z AUTO 35006KT 10SM BKN100 07/M06 A3001 RMK AO2 SLP135 T00671061 10122 20050 51006
KCAG 100453Z AUTO 00000KT 10SM BKN110 07/M07 A3000 RMK AO2 SLP136 T00721067
KCAG 100353Z AUTO VRB03KT 10SM OVC100 07/M06 A3000 RMK AO2 SLP135 T00721061
KCAG 100253Z AUTO 20004KT 10SM BKN120 09/M08 A2998 RMK AO2 SLP133 T00891078 52003
KCAG 100153Z AUTO 21008KT 10SM OVC100 11/M08 A2998 RMK AO2 PK WND 24027/0057 SLP137 T01061078
KCAG 100053Z AUTO 23012KT 10SM OVC100 12/M08 A2997 RMK AO2 SLP139 T01171083
KCAG 092353Z AUTO 27007G17KT 230V300 10SM FEW075 OVC100 12/M10 A2997 RMK AO2 SLP137 T01221100 10144 20094 55004
KCAG 092253Z AUTO 30004KT 10SM SCT100 13/M11 A2996 RMK AO2 SLP135 T01281106
KCAG 092153Z AUTO 10SM FEW100 13/M09 A2997 RMK AO2 SLP135 T01281094
KCAG 092053Z AUTO 27014G20KT 10SM CLR 14/M09 A2998 RMK AO2 SLP131 T01391094 56019
KCAG 091953Z AUTO 23009G14KT 10SM CLR 12/M10 A3000 RMK AO2 SLP140 T01221100
KCAG 091853Z AUTO 29007G16KT 10SM CLR 12/M11 A3003 RMK AO2 SLP152 T01171106
KCAG 091753Z AUTO 10SM CLR 10/ A3005 RMK AO2 SLP162 T0100 10100 21022 58013 $
KCAG 091653Z AUTO 00000KT 10SM CLR 08/ A3007 RMK AO2 SLP169 T0083 $
KCAG 091553Z AUTO 00000KT 10SM CLR 08/ A3008 RMK AO2 SLP167 T0078 $
KCAG 091453Z AUTO 00000KT 10SM CLR 05/ A3010 RMK AO2 SLP176 T0050 50001 $
KCAG 091353Z AUTO 00000KT 10SM CLR 02/ A3010 RMK AO2 SLP179 T0017 $
KCAG 091253Z AUTO 00000KT 10SM CLR M01/ A3010 RMK AO2 SLP174 T1006 $
KCAG 091153Z AUTO 00000KT 10SM CLR M02/M07 A3009 RMK AO2 SLP171 T10171067 10022 21022 50004
KCAG 091053Z AUTO 00000KT 10SM CLR M02/M08 A3010 RMK AO2 SLP172 T10221078